sensor_id;sensor_type;location;lat;lon;timestamp;P1;durP1;ratioP1;P2;durP2;ratioP2
4533;SDS011;2279;51.448;7.306;2022-12-18T00:01:17;9.30;;;5.70;;
4533;SDS011;2279;51.448;7.306;2022-12-18T00:03:44;6.00;;;4.35;;
4533;SDS011;2279;51.448;7.306;2022-12-18T00:06:10;10.57;;;4.70;;
4533;SDS011;2279;51.448;7.306;2022-12-18T00:08:36;6.50;;;4.80;;
4533;SDS011;2279;51.448;7.306;2022-12-18T00:11:03;6.75;;;4.43;;
4533;SDS011;2279;51.448;7.306;2022-12-18T00:13:29;5.80;;;4.38;;
4533;SDS011;2279;51.448;7.306;2022-12-18T00:15:55;7.23;;;4.50;;
4533;SDS011;2279;51.448;7.306;2022-12-18T00:18:26;5.63;;;4.13;;
4533;SDS011;2279;51.448;7.306;2022-12-18T00:20:52;5.53;;;4.93;;
4533;SDS011;2279;51.448;7.306;2022-12-18T00:23:18;6.40;;;4.80;;
4533;SDS011;2279;51.448;7.306;2022-12-18T00:25:44;5.23;;;4.73;;
4533;SDS011;2279;51.448;7.306;2022-12-18T00:28:10;7.60;;;6.33;;
4533;SDS011;2279;51.448;7.306;2022-12-18T00:30:36;10.97;;;5.03;;
4533;SDS011;2279;51.448;7.306;2022-12-18T00:33:02;7.43;;;4.40;;
4533;SDS011;2279;51.448;7.306;2022-12-18T00:35:28;5.53;;;4.38;;
4533;SDS011;2279;51.448;7.306;2022-12-18T00:37:54;6.67;;;4.87;;
4533;SDS011;2279;51.448;7.306;2022-12-18T00:40:20;6.00;;;4.23;;
4533;SDS011;2279;51.448;7.306;2022-12-18T00:42:46;5.03;;;4.43;;
4533;SDS011;2279;51.448;7.306;2022-12-18T00:45:28;7.13;;;4.68;;
4533;SDS011;2279;51.448;7.306;2022-12-18T00:47:54;5.40;;;4.90;;
4533;SDS011;2279;51.448;7.306;2022-12-18T00:50:21;6.60;;;5.28;;
4533;SDS011;2279;51.448;7.306;2022-12-18T00:52:47;4.50;;;3.65;;
4533;SDS011;2279;51.448;7.306;2022-12-18T00:55:13;6.50;;;3.83;;
4533;SDS011;2279;51.448;7.306;2022-12-18T00:57:39;8.45;;;4.78;;
4533;SDS011;2279;51.448;7.306;2022-12-18T01:00:06;5.88;;;4.43;;
4533;SDS011;2279;51.448;7.306;2022-12-18T01:02:32;4.25;;;3.65;;
4533;SDS011;2279;51.448;7.306;2022-12-18T01:04:58;4.20;;;3.37;;
4533;SDS011;2279;51.448;7.306;2022-12-18T01:07:24;5.60;;;4.17;;
4533;SDS011;2279;51.448;7.306;2022-12-18T01:09:50;7.37;;;5.20;;
4533;SDS011;2279;51.448;7.306;2022-12-18T01:12:16;5.07;;;4.57;;
4533;SDS011;2279;51.448;7.306;2022-12-18T01:14:42;6.13;;;4.47;;
4533;SDS011;2279;51.448;7.306;2022-12-18T01:17:08;4.50;;;3.50;;
4533;SDS011;2279;51.448;7.306;2022-12-18T01:19:34;5.70;;;4.30;;
4533;SDS011;2279;51.448;7.306;2022-12-18T01:22:00;6.72;;;4.57;;
4533;SDS011;2279;51.448;7.306;2022-12-18T01:24:26;4.27;;;3.90;;
4533;SDS011;2279;51.448;7.306;2022-12-18T01:26:52;5.27;;;4.77;;
4533;SDS011;2279;51.448;7.306;2022-12-18T01:29:18;6.00;;;4.50;;
4533;SDS011;2279;51.448;7.306;2022-12-18T01:31:44;10.83;;;4.00;;
4533;SDS011;2279;51.448;7.306;2022-12-18T01:34:10;4.93;;;4.43;;
4533;SDS011;2279;51.448;7.306;2022-12-18T01:36:37;6.87;;;4.90;;
4533;SDS011;2279;51.448;7.306;2022-12-18T01:39:09;5.63;;;4.22;;
4533;SDS011;2279;51.448;7.306;2022-12-18T01:41:35;4.85;;;3.90;;
4533;SDS011;2279;51.448;7.306;2022-12-18T01:47:05;5.30;;;4.80;;
4533;SDS011;2279;51.448;7.306;2022-12-18T01:49:31;4.97;;;4.47;;
4533;SDS011;2279;51.448;7.306;2022-12-18T01:51:57;5.77;;;4.83;;
4533;SDS011;2279;51.448;7.306;2022-12-18T01:54:23;5.13;;;4.40;;
4533;SDS011;2279;51.448;7.306;2022-12-18T01:56:49;6.90;;;4.60;;
4533;SDS011;2279;51.448;7.306;2022-12-18T01:59:14;5.90;;;4.67;;
4533;SDS011;2279;51.448;7.306;2022-12-18T02:01:41;6.35;;;4.80;;
4533;SDS011;2279;51.448;7.306;2022-12-18T02:04:40;9.95;;;4.40;;
4533;SDS011;2279;51.448;7.306;2022-12-18T02:10:06;5.30;;;4.60;;
4533;SDS011;2279;51.448;7.306;2022-12-18T02:12:48;6.82;;;3.95;;
4533;SDS011;2279;51.448;7.306;2022-12-18T02:15:16;5.93;;;5.00;;
4533;SDS011;2279;51.448;7.306;2022-12-18T02:17:48;7.95;;;3.97;;
4533;SDS011;2279;51.448;7.306;2022-12-18T02:20:20;5.05;;;3.97;;
4533;SDS011;2279;51.448;7.306;2022-12-18T02:28:18;5.75;;;3.95;;
4533;SDS011;2279;51.448;7.306;2022-12-18T02:30:46;4.60;;;4.22;;
4533;SDS011;2279;51.448;7.306;2022-12-18T02:33:13;7.40;;;5.10;;
4533;SDS011;2279;51.448;7.306;2022-12-18T02:35:40;4.88;;;4.00;;
4533;SDS011;2279;51.448;7.306;2022-12-18T02:38:07;4.68;;;3.85;;
4533;SDS011;2279;51.448;7.306;2022-12-18T02:40:33;5.68;;;4.65;;
4533;SDS011;2279;51.448;7.306;2022-12-18T02:43:06;4.32;;;3.92;;
4533;SDS011;2279;51.448;7.306;2022-12-18T02:45:32;4.50;;;4.10;;
4533;SDS011;2279;51.448;7.306;2022-12-18T02:47:58;5.67;;;4.90;;
4533;SDS011;2279;51.448;7.306;2022-12-18T02:50:26;6.67;;;4.83;;
4533;SDS011;2279;51.448;7.306;2022-12-18T02:57:56;4.88;;;4.20;;
4533;SDS011;2279;51.448;7.306;2022-12-18T03:00:37;4.13;;;3.83;;
4533;SDS011;2279;51.448;7.306;2022-12-18T03:03:07;7.60;;;4.70;;
4533;SDS011;2279;51.448;7.306;2022-12-18T03:05:40;4.68;;;4.35;;
4533;SDS011;2279;51.448;7.306;2022-12-18T03:08:07;7.90;;;5.15;;
4533;SDS011;2279;51.448;7.306;2022-12-18T03:10:36;8.27;;;5.30;;
4533;SDS011;2279;51.448;7.306;2022-12-18T03:15:56;5.32;;;4.25;;
4533;SDS011;2279;51.448;7.306;2022-12-18T03:18:39;5.45;;;4.75;;
4533;SDS011;2279;51.448;7.306;2022-12-18T03:21:08;5.53;;;4.25;;
4533;SDS011;2279;51.448;7.306;2022-12-18T03:23:38;6.68;;;4.63;;
4533;SDS011;2279;51.448;7.306;2022-12-18T03:26:07;5.05;;;4.38;;
4533;SDS011;2279;51.448;7.306;2022-12-18T03:28:35;6.55;;;4.78;;
4533;SDS011;2279;51.448;7.306;2022-12-18T03:31:03;5.32;;;4.03;;
4533;SDS011;2279;51.448;7.306;2022-12-18T03:33:41;5.35;;;4.85;;
4533;SDS011;2279;51.448;7.306;2022-12-18T03:36:09;5.35;;;4.10;;
4533;SDS011;2279;51.448;7.306;2022-12-18T03:38:35;6.50;;;4.72;;
4533;SDS011;2279;51.448;7.306;2022-12-18T03:43:49;6.38;;;3.92;;
4533;SDS011;2279;51.448;7.306;2022-12-18T03:46:19;6.82;;;4.57;;
4533;SDS011;2279;51.448;7.306;2022-12-18T03:48:50;7.35;;;4.47;;
4533;SDS011;2279;51.448;7.306;2022-12-18T03:51:18;6.90;;;4.45;;
4533;SDS011;2279;51.448;7.306;2022-12-18T03:53:56;5.82;;;4.22;;
4533;SDS011;2279;51.448;7.306;2022-12-18T03:56:23;6.35;;;4.32;;
4533;SDS011;2279;51.448;7.306;2022-12-18T03:58:51;5.55;;;4.00;;
4533;SDS011;2279;51.448;7.306;2022-12-18T04:01:19;6.90;;;5.38;;
4533;SDS011;2279;51.448;7.306;2022-12-18T04:03:46;5.65;;;4.75;;
4533;SDS011;2279;51.448;7.306;2022-12-18T04:06:14;5.32;;;4.75;;
4533;SDS011;2279;51.448;7.306;2022-12-18T04:08:40;4.55;;;4.15;;
4533;SDS011;2279;51.448;7.306;2022-12-18T04:11:07;4.85;;;4.45;;
4533;SDS011;2279;51.448;7.306;2022-12-18T04:13:34;10.80;;;4.03;;
4533;SDS011;2279;51.448;7.306;2022-12-18T04:16:00;8.20;;;4.50;;
4533;SDS011;2279;51.448;7.306;2022-12-18T04:18:26;6.33;;;4.23;;
4533;SDS011;2279;51.448;7.306;2022-12-18T04:20:52;4.13;;;3.83;;
4533;SDS011;2279;51.448;7.306;2022-12-18T04:23:18;4.23;;;3.80;;
4533;SDS011;2279;51.448;7.306;2022-12-18T04:25:45;4.00;;;3.70;;
4533;SDS011;2279;51.448;7.306;2022-12-18T04:28:11;6.82;;;4.90;;
4533;SDS011;2279;51.448;7.306;2022-12-18T04:30:37;5.27;;;3.80;;
4533;SDS011;2279;51.448;7.306;2022-12-18T04:33:03;4.47;;;4.17;;
4533;SDS011;2279;51.448;7.306;2022-12-18T04:35:29;7.40;;;4.30;;
4533;SDS011;2279;51.448;7.306;2022-12-18T04:37:55;4.60;;;3.85;;
4533;SDS011;2279;51.448;7.306;2022-12-18T04:40:21;7.63;;;4.03;;
4533;SDS011;2279;51.448;7.306;2022-12-18T04:42:47;5.32;;;4.22;;
4533;SDS011;2279;51.448;7.306;2022-12-18T04:45:13;5.20;;;4.47;;
4533;SDS011;2279;51.448;7.306;2022-12-18T04:47:39;4.55;;;3.70;;
4533;SDS011;2279;51.448;7.306;2022-12-18T04:50:05;7.47;;;4.07;;
4533;SDS011;2279;51.448;7.306;2022-12-18T04:52:31;3.72;;;3.40;;
4533;SDS011;2279;51.448;7.306;2022-12-18T04:54:57;4.40;;;3.85;;
4533;SDS011;2279;51.448;7.306;2022-12-18T04:57:23;4.47;;;4.07;;
4533;SDS011;2279;51.448;7.306;2022-12-18T04:59:49;4.90;;;3.77;;
4533;SDS011;2279;51.448;7.306;2022-12-18T05:02:15;3.77;;;3.43;;
4533;SDS011;2279;51.448;7.306;2022-12-18T05:04:41;6.00;;;3.63;;
4533;SDS011;2279;51.448;7.306;2022-12-18T05:07:07;4.73;;;4.00;;
4533;SDS011;2279;51.448;7.306;2022-12-18T05:09:33;7.00;;;4.10;;
4533;SDS011;2279;51.448;7.306;2022-12-18T05:11:59;5.00;;;3.45;;
4533;SDS011;2279;51.448;7.306;2022-12-18T05:14:24;7.00;;;4.03;;
4533;SDS011;2279;51.448;7.306;2022-12-18T05:16:52;5.30;;;4.60;;
4533;SDS011;2279;51.448;7.306;2022-12-18T05:19:18;7.50;;;3.97;;
4533;SDS011;2279;51.448;7.306;2022-12-18T05:21:44;4.43;;;4.00;;
4533;SDS011;2279;51.448;7.306;2022-12-18T05:24:10;4.90;;;4.07;;
4533;SDS011;2279;51.448;7.306;2022-12-18T05:26:36;4.53;;;4.15;;
4533;SDS011;2279;51.448;7.306;2022-12-18T05:29:02;4.70;;;4.13;;
4533;SDS011;2279;51.448;7.306;2022-12-18T05:31:28;5.00;;;3.80;;
4533;SDS011;2279;51.448;7.306;2022-12-18T05:33:54;6.10;;;3.90;;
4533;SDS011;2279;51.448;7.306;2022-12-18T05:36:20;5.63;;;5.03;;
4533;SDS011;2279;51.448;7.306;2022-12-18T05:38:46;4.00;;;3.00;;
4533;SDS011;2279;51.448;7.306;2022-12-18T05:41:12;3.70;;;3.50;;
4533;SDS011;2279;51.448;7.306;2022-12-18T05:43:38;5.70;;;4.50;;
4533;SDS011;2279;51.448;7.306;2022-12-18T05:46:05;13.88;;;4.18;;
4533;SDS011;2279;51.448;7.306;2022-12-18T05:48:31;5.20;;;4.13;;
4533;SDS011;2279;51.448;7.306;2022-12-18T05:51:02;3.90;;;3.50;;
4533;SDS011;2279;51.448;7.306;2022-12-18T05:53:28;3.95;;;3.08;;
4533;SDS011;2279;51.448;7.306;2022-12-18T05:55:59;5.20;;;4.23;;
4533;SDS011;2279;51.448;7.306;2022-12-18T05:58:25;5.25;;;3.30;;
4533;SDS011;2279;51.448;7.306;2022-12-18T06:00:51;4.43;;;3.30;;
4533;SDS011;2279;51.448;7.306;2022-12-18T06:03:17;4.37;;;4.00;;
4533;SDS011;2279;51.448;7.306;2022-12-18T06:05:43;4.30;;;3.87;;
4533;SDS011;2279;51.448;7.306;2022-12-18T06:08:10;4.35;;;3.90;;
4533;SDS011;2279;51.448;7.306;2022-12-18T06:10:36;4.78;;;4.00;;
4533;SDS011;2279;51.448;7.306;2022-12-18T06:13:02;4.20;;;3.80;;
4533;SDS011;2279;51.448;7.306;2022-12-18T06:15:28;5.90;;;3.35;;
4533;SDS011;2279;51.448;7.306;2022-12-18T06:17:54;4.23;;;3.73;;
4533;SDS011;2279;51.448;7.306;2022-12-18T06:20:20;4.03;;;3.70;;
4533;SDS011;2279;51.448;7.306;2022-12-18T06:22:46;6.03;;;3.55;;
4533;SDS011;2279;51.448;7.306;2022-12-18T06:25:12;5.73;;;3.87;;
4533;SDS011;2279;51.448;7.306;2022-12-18T06:27:38;3.13;;;2.93;;
4533;SDS011;2279;51.448;7.306;2022-12-18T06:30:04;4.80;;;4.30;;
4533;SDS011;2279;51.448;7.306;2022-12-18T06:32:30;4.70;;;4.30;;
4533;SDS011;2279;51.448;7.306;2022-12-18T06:34:56;4.57;;;3.95;;
4533;SDS011;2279;51.448;7.306;2022-12-18T06:37:23;4.20;;;3.85;;
4533;SDS011;2279;51.448;7.306;2022-12-18T06:39:50;5.78;;;3.30;;
4533;SDS011;2279;51.448;7.306;2022-12-18T06:42:16;3.73;;;3.53;;
4533;SDS011;2279;51.448;7.306;2022-12-18T06:44:42;4.20;;;3.33;;
4533;SDS011;2279;51.448;7.306;2022-12-18T06:47:08;3.72;;;3.30;;
4533;SDS011;2279;51.448;7.306;2022-12-18T06:49:34;6.60;;;3.80;;
4533;SDS011;2279;51.448;7.306;2022-12-18T06:52:00;7.10;;;4.67;;
4533;SDS011;2279;51.448;7.306;2022-12-18T06:54:26;5.17;;;3.83;;
4533;SDS011;2279;51.448;7.306;2022-12-18T06:56:52;4.43;;;4.07;;
4533;SDS011;2279;51.448;7.306;2022-12-18T06:59:21;3.95;;;3.55;;
4533;SDS011;2279;51.448;7.306;2022-12-18T07:01:47;3.83;;;3.53;;
4533;SDS011;2279;51.448;7.306;2022-12-18T07:04:13;5.90;;;4.17;;
4533;SDS011;2279;51.448;7.306;2022-12-18T07:06:39;3.97;;;3.63;;
4533;SDS011;2279;51.448;7.306;2022-12-18T07:09:05;5.47;;;4.10;;
4533;SDS011;2279;51.448;7.306;2022-12-18T07:11:33;4.33;;;3.93;;
4533;SDS011;2279;51.448;7.306;2022-12-18T07:14:00;8.65;;;5.28;;
4533;SDS011;2279;51.448;7.306;2022-12-18T07:16:26;5.18;;;4.68;;
4533;SDS011;2279;51.448;7.306;2022-12-18T07:18:56;5.45;;;4.00;;
4533;SDS011;2279;51.448;7.306;2022-12-18T07:21:23;10.18;;;5.13;;
4533;SDS011;2279;51.448;7.306;2022-12-18T07:23:49;9.05;;;4.80;;
4533;SDS011;2279;51.448;7.306;2022-12-18T07:26:16;6.43;;;4.60;;
4533;SDS011;2279;51.448;7.306;2022-12-18T07:28:42;7.75;;;4.97;;
4533;SDS011;2279;51.448;7.306;2022-12-18T07:31:15;9.73;;;5.07;;
4533;SDS011;2279;51.448;7.306;2022-12-18T07:33:41;8.02;;;4.97;;
4533;SDS011;2279;51.448;7.306;2022-12-18T07:36:07;5.65;;;5.05;;
4533;SDS011;2279;51.448;7.306;2022-12-18T07:38:34;5.78;;;5.18;;
4533;SDS011;2279;51.448;7.306;2022-12-18T07:41:00;4.45;;;4.05;;
4533;SDS011;2279;51.448;7.306;2022-12-18T07:43:26;6.75;;;4.45;;
4533;SDS011;2279;51.448;7.306;2022-12-18T07:45:52;5.45;;;5.00;;
4533;SDS011;2279;51.448;7.306;2022-12-18T07:48:18;5.63;;;4.17;;
4533;SDS011;2279;51.448;7.306;2022-12-18T07:50:44;5.30;;;4.17;;
4533;SDS011;2279;51.448;7.306;2022-12-18T07:53:10;7.40;;;4.60;;
4533;SDS011;2279;51.448;7.306;2022-12-18T07:55:36;5.37;;;4.93;;
4533;SDS011;2279;51.448;7.306;2022-12-18T07:58:03;5.47;;;4.73;;
4533;SDS011;2279;51.448;7.306;2022-12-18T08:00:29;5.35;;;4.05;;
4533;SDS011;2279;51.448;7.306;2022-12-18T08:02:55;4.50;;;3.85;;
4533;SDS011;2279;51.448;7.306;2022-12-18T08:05:21;4.97;;;4.47;;
4533;SDS011;2279;51.448;7.306;2022-12-18T08:07:47;4.90;;;3.97;;
4533;SDS011;2279;51.448;7.306;2022-12-18T08:10:13;4.13;;;3.47;;
4533;SDS011;2279;51.448;7.306;2022-12-18T08:12:39;6.50;;;4.20;;
4533;SDS011;2279;51.448;7.306;2022-12-18T08:15:05;8.30;;;4.88;;
4533;SDS011;2279;51.448;7.306;2022-12-18T08:17:32;6.22;;;4.30;;
4533;SDS011;2279;51.448;7.306;2022-12-18T08:19:57;4.73;;;4.30;;
4533;SDS011;2279;51.448;7.306;2022-12-18T08:22:23;7.70;;;4.60;;
4533;SDS011;2279;51.448;7.306;2022-12-18T08:24:49;7.05;;;4.40;;
4533;SDS011;2279;51.448;7.306;2022-12-18T08:27:15;4.40;;;3.67;;
4533;SDS011;2279;51.448;7.306;2022-12-18T08:29:41;5.53;;;4.33;;
4533;SDS011;2279;51.448;7.306;2022-12-18T08:32:07;5.63;;;4.17;;
4533;SDS011;2279;51.448;7.306;2022-12-18T08:34:33;5.43;;;3.73;;
4533;SDS011;2279;51.448;7.306;2022-12-18T08:36:59;5.37;;;3.90;;
4533;SDS011;2279;51.448;7.306;2022-12-18T08:39:25;6.43;;;3.92;;
4533;SDS011;2279;51.448;7.306;2022-12-18T08:41:51;3.70;;;3.37;;
4533;SDS011;2279;51.448;7.306;2022-12-18T08:44:36;4.82;;;3.70;;
4533;SDS011;2279;51.448;7.306;2022-12-18T08:47:02;5.10;;;4.40;;
4533;SDS011;2279;51.448;7.306;2022-12-18T08:49:28;5.85;;;3.80;;
4533;SDS011;2279;51.448;7.306;2022-12-18T08:51:55;7.20;;;3.80;;
4533;SDS011;2279;51.448;7.306;2022-12-18T08:54:22;5.60;;;4.03;;
4533;SDS011;2279;51.448;7.306;2022-12-18T08:56:48;6.40;;;3.97;;
4533;SDS011;2279;51.448;7.306;2022-12-18T08:59:17;5.70;;;4.47;;
4533;SDS011;2279;51.448;7.306;2022-12-18T09:01:44;4.00;;;3.28;;
4533;SDS011;2279;51.448;7.306;2022-12-18T09:04:10;3.45;;;2.97;;
4533;SDS011;2279;51.448;7.306;2022-12-18T09:06:36;4.03;;;3.10;;
4533;SDS011;2279;51.448;7.306;2022-12-18T09:09:03;4.18;;;3.80;;
4533;SDS011;2279;51.448;7.306;2022-12-18T09:11:29;3.95;;;2.90;;
4533;SDS011;2279;51.448;7.306;2022-12-18T09:13:56;4.35;;;2.92;;
4533;SDS011;2279;51.448;7.306;2022-12-18T09:16:23;2.65;;;2.45;;
4533;SDS011;2279;51.448;7.306;2022-12-18T09:18:49;3.80;;;3.40;;
4533;SDS011;2279;51.448;7.306;2022-12-18T09:21:16;2.93;;;2.57;;
4533;SDS011;2279;51.448;7.306;2022-12-18T09:23:42;3.05;;;2.78;;
4533;SDS011;2279;51.448;7.306;2022-12-18T09:26:08;3.43;;;3.13;;
4533;SDS011;2279;51.448;7.306;2022-12-18T09:28:34;3.93;;;3.30;;
4533;SDS011;2279;51.448;7.306;2022-12-18T09:31:03;4.13;;;3.73;;
4533;SDS011;2279;51.448;7.306;2022-12-18T09:33:30;3.47;;;3.17;;
4533;SDS011;2279;51.448;7.306;2022-12-18T09:35:56;3.90;;;3.00;;
4533;SDS011;2279;51.448;7.306;2022-12-18T09:38:22;3.53;;;2.93;;
4533;SDS011;2279;51.448;7.306;2022-12-18T09:40:49;3.60;;;3.30;;
4533;SDS011;2279;51.448;7.306;2022-12-18T09:43:24;2.90;;;2.70;;
4533;SDS011;2279;51.448;7.306;2022-12-18T09:45:53;6.80;;;3.07;;
4533;SDS011;2279;51.448;7.306;2022-12-18T09:48:22;5.00;;;3.03;;
4533;SDS011;2279;51.448;7.306;2022-12-18T09:50:49;6.00;;;3.60;;
4533;SDS011;2279;51.448;7.306;2022-12-18T09:53:17;4.60;;;3.60;;
4533;SDS011;2279;51.448;7.306;2022-12-18T09:55:46;3.83;;;3.40;;
4533;SDS011;2279;51.448;7.306;2022-12-18T09:58:19;3.53;;;3.23;;
4533;SDS011;2279;51.448;7.306;2022-12-18T10:00:46;3.60;;;2.93;;
4533;SDS011;2279;51.448;7.306;2022-12-18T10:03:13;5.60;;;4.20;;
4533;SDS011;2279;51.448;7.306;2022-12-18T10:05:55;4.10;;;2.80;;
4533;SDS011;2279;51.448;7.306;2022-12-18T10:13:46;3.20;;;2.88;;
4533;SDS011;2279;51.448;7.306;2022-12-18T10:16:30;4.45;;;3.35;;
4533;SDS011;2279;51.448;7.306;2022-12-18T10:21:46;6.15;;;4.05;;
4533;SDS011;2279;51.448;7.306;2022-12-18T10:26:52;3.83;;;3.35;;
4533;SDS011;2279;51.448;7.306;2022-12-18T10:29:21;4.03;;;3.22;;
4533;SDS011;2279;51.448;7.306;2022-12-18T10:31:47;4.22;;;3.40;;
4533;SDS011;2279;51.448;7.306;2022-12-18T10:34:13;3.40;;;3.10;;
4533;SDS011;2279;51.448;7.306;2022-12-18T10:36:39;3.22;;;2.90;;
4533;SDS011;2279;51.448;7.306;2022-12-18T10:39:22;4.45;;;3.35;;
4533;SDS011;2279;51.448;7.306;2022-12-18T10:41:49;4.65;;;3.80;;
4533;SDS011;2279;51.448;7.306;2022-12-18T10:44:23;3.45;;;3.00;;
4533;SDS011;2279;51.448;7.306;2022-12-18T10:46:55;7.72;;;2.90;;
4533;SDS011;2279;51.448;7.306;2022-12-18T10:49:29;4.82;;;3.05;;
4533;SDS011;2279;51.448;7.306;2022-12-18T10:54:30;3.10;;;2.67;;
4533;SDS011;2279;51.448;7.306;2022-12-18T10:59:52;4.68;;;3.28;;
4533;SDS011;2279;51.448;7.306;2022-12-18T11:04:51;3.45;;;2.92;;
4533;SDS011;2279;51.448;7.306;2022-12-18T11:07:18;2.40;;;2.20;;
4533;SDS011;2279;51.448;7.306;2022-12-18T11:09:44;3.10;;;2.80;;
4533;SDS011;2279;51.448;7.306;2022-12-18T11:12:28;2.80;;;2.50;;
4533;SDS011;2279;51.448;7.306;2022-12-18T11:14:54;3.43;;;2.80;;
4533;SDS011;2279;51.448;7.306;2022-12-18T11:17:27;2.90;;;2.70;;
4533;SDS011;2279;51.448;7.306;2022-12-18T11:20:06;2.70;;;2.50;;
4533;SDS011;2279;51.448;7.306;2022-12-18T11:22:40;4.00;;;3.30;;
4533;SDS011;2279;51.448;7.306;2022-12-18T11:25:07;4.90;;;3.27;;
4533;SDS011;2279;51.448;7.306;2022-12-18T11:27:49;5.05;;;2.83;;
4533;SDS011;2279;51.448;7.306;2022-12-18T11:32:46;3.13;;;2.80;;
4533;SDS011;2279;51.448;7.306;2022-12-18T11:37:47;3.95;;;3.20;;
4533;SDS011;2279;51.448;7.306;2022-12-18T11:40:15;4.10;;;2.88;;
4533;SDS011;2279;51.448;7.306;2022-12-18T11:42:58;3.83;;;2.90;;
4533;SDS011;2279;51.448;7.306;2022-12-18T11:45:28;4.88;;;3.08;;
4533;SDS011;2279;51.448;7.306;2022-12-18T11:50:26;3.70;;;3.40;;
4533;SDS011;2279;51.448;7.306;2022-12-18T11:52:52;3.45;;;3.15;;
4533;SDS011;2279;51.448;7.306;2022-12-18T11:55:37;3.30;;;2.87;;
4533;SDS011;2279;51.448;7.306;2022-12-18T12:00:39;4.30;;;3.30;;
4533;SDS011;2279;51.448;7.306;2022-12-18T12:08:31;4.72;;;3.45;;
4533;SDS011;2279;51.448;7.306;2022-12-18T12:13:39;4.25;;;3.85;;
4533;SDS011;2279;51.448;7.306;2022-12-18T12:18:49;3.70;;;3.33;;
4533;SDS011;2279;51.448;7.306;2022-12-18T12:26:52;3.88;;;3.47;;
4533;SDS011;2279;51.448;7.306;2022-12-18T12:29:26;5.10;;;4.00;;
4533;SDS011;2279;51.448;7.306;2022-12-18T12:39:32;4.00;;;3.42;;
4533;SDS011;2279;51.448;7.306;2022-12-18T12:42:01;4.80;;;4.30;;
4533;SDS011;2279;51.448;7.306;2022-12-18T12:44:49;4.03;;;3.72;;
4533;SDS011;2279;51.448;7.306;2022-12-18T12:47:20;4.65;;;3.75;;
4533;SDS011;2279;51.448;7.306;2022-12-18T12:49:47;7.07;;;3.28;;
4533;SDS011;2279;51.448;7.306;2022-12-18T12:52:56;5.32;;;3.90;;
4533;SDS011;2279;51.448;7.306;2022-12-18T12:55:04;5.53;;;4.40;;
4533;SDS011;2279;51.448;7.306;2022-12-18T12:57:34;7.55;;;4.97;;
4533;SDS011;2279;51.448;7.306;2022-12-18T13:02:43;8.43;;;5.17;;
4533;SDS011;2279;51.448;7.306;2022-12-18T13:05:16;6.05;;;4.93;;
4533;SDS011;2279;51.448;7.306;2022-12-18T13:23:19;6.17;;;4.80;;
4533;SDS011;2279;51.448;7.306;2022-12-18T13:25:45;6.05;;;4.43;;
4533;SDS011;2279;51.448;7.306;2022-12-18T13:28:15;9.65;;;5.75;;
4533;SDS011;2279;51.448;7.306;2022-12-18T13:30:45;11.75;;;5.32;;
4533;SDS011;2279;51.448;7.306;2022-12-18T13:43:27;8.80;;;5.80;;
4533;SDS011;2279;51.448;7.306;2022-12-18T13:48:38;8.40;;;5.95;;
4533;SDS011;2279;51.448;7.306;2022-12-18T13:51:09;8.48;;;5.97;;
4533;SDS011;2279;51.448;7.306;2022-12-18T13:53:41;7.45;;;5.45;;
4533;SDS011;2279;51.448;7.306;2022-12-18T13:56:09;10.25;;;6.43;;
4533;SDS011;2279;51.448;7.306;2022-12-18T13:58:35;8.77;;;6.03;;
4533;SDS011;2279;51.448;7.306;2022-12-18T14:01:01;7.60;;;6.00;;
4533;SDS011;2279;51.448;7.306;2022-12-18T14:03:29;10.10;;;8.30;;
4533;SDS011;2279;51.448;7.306;2022-12-18T14:05:57;10.60;;;7.03;;
4533;SDS011;2279;51.448;7.306;2022-12-18T14:08:24;13.48;;;6.32;;
4533;SDS011;2279;51.448;7.306;2022-12-18T14:10:51;13.23;;;8.13;;
4533;SDS011;2279;51.448;7.306;2022-12-18T14:13:23;16.73;;;7.25;;
4533;SDS011;2279;51.448;7.306;2022-12-18T14:15:50;12.10;;;7.55;;
4533;SDS011;2279;51.448;7.306;2022-12-18T14:18:20;7.47;;;6.53;;
4533;SDS011;2279;51.448;7.306;2022-12-18T14:20:47;11.55;;;6.80;;
4533;SDS011;2279;51.448;7.306;2022-12-18T14:25:54;11.15;;;6.93;;
4533;SDS011;2279;51.448;7.306;2022-12-18T14:28:20;10.00;;;7.20;;
4533;SDS011;2279;51.448;7.306;2022-12-18T14:30:47;10.73;;;8.02;;
4533;SDS011;2279;51.448;7.306;2022-12-18T14:33:17;9.45;;;7.03;;
4533;SDS011;2279;51.448;7.306;2022-12-18T14:35:57;9.02;;;6.40;;
4533;SDS011;2279;51.448;7.306;2022-12-18T14:38:30;12.57;;;7.38;;
4533;SDS011;2279;51.448;7.306;2022-12-18T14:41:00;10.98;;;7.70;;
4533;SDS011;2279;51.448;7.306;2022-12-18T14:43:28;10.55;;;7.28;;
4533;SDS011;2279;51.448;7.306;2022-12-18T14:45:54;11.30;;;7.50;;
4533;SDS011;2279;51.448;7.306;2022-12-18T14:50:57;11.55;;;6.95;;
4533;SDS011;2279;51.448;7.306;2022-12-18T14:53:28;13.55;;;7.70;;
4533;SDS011;2279;51.448;7.306;2022-12-18T14:55:57;15.63;;;7.35;;
4533;SDS011;2279;51.448;7.306;2022-12-18T14:58:23;9.82;;;6.63;;
4533;SDS011;2279;51.448;7.306;2022-12-18T15:00:49;9.52;;;6.88;;
4533;SDS011;2279;51.448;7.306;2022-12-18T15:03:17;9.75;;;7.28;;
4533;SDS011;2279;51.448;7.306;2022-12-18T15:05:44;13.18;;;7.03;;
4533;SDS011;2279;51.448;7.306;2022-12-18T15:08:30;12.10;;;8.18;;
4533;SDS011;2279;51.448;7.306;2022-12-18T15:10:56;12.70;;;8.05;;
4533;SDS011;2279;51.448;7.306;2022-12-18T15:13:23;10.70;;;7.50;;
4533;SDS011;2279;51.448;7.306;2022-12-18T15:15:49;12.75;;;8.00;;
4533;SDS011;2279;51.448;7.306;2022-12-18T15:18:16;12.90;;;7.93;;
4533;SDS011;2279;51.448;7.306;2022-12-18T15:20:48;14.20;;;8.35;;
4533;SDS011;2279;51.448;7.306;2022-12-18T15:25:43;12.35;;;7.40;;
4533;SDS011;2279;51.448;7.306;2022-12-18T15:28:15;11.73;;;7.40;;
4533;SDS011;2279;51.448;7.306;2022-12-18T15:30:57;12.77;;;7.97;;
4533;SDS011;2279;51.448;7.306;2022-12-18T15:33:24;15.38;;;8.10;;
4533;SDS011;2279;51.448;7.306;2022-12-18T15:35:57;11.60;;;8.23;;
4533;SDS011;2279;51.448;7.306;2022-12-18T15:38:23;13.48;;;7.53;;
4533;SDS011;2279;51.448;7.306;2022-12-18T15:40:49;14.47;;;9.07;;
4533;SDS011;2279;51.448;7.306;2022-12-18T15:43:15;15.00;;;8.70;;
4533;SDS011;2279;51.448;7.306;2022-12-18T15:46:11;20.33;;;10.00;;
4533;SDS011;2279;51.448;7.306;2022-12-18T15:48:39;10.88;;;8.25;;
4533;SDS011;2279;51.448;7.306;2022-12-18T15:51:05;12.13;;;7.88;;
4533;SDS011;2279;51.448;7.306;2022-12-18T15:53:35;14.80;;;7.88;;
4533;SDS011;2279;51.448;7.306;2022-12-18T15:56:01;17.65;;;10.77;;
4533;SDS011;2279;51.448;7.306;2022-12-18T15:58:46;13.13;;;9.73;;
4533;SDS011;2279;51.448;7.306;2022-12-18T16:01:12;14.80;;;9.57;;
4533;SDS011;2279;51.448;7.306;2022-12-18T16:03:39;17.52;;;9.77;;
4533;SDS011;2279;51.448;7.306;2022-12-18T16:06:05;14.87;;;9.07;;
4533;SDS011;2279;51.448;7.306;2022-12-18T16:08:31;17.33;;;8.93;;
4533;SDS011;2279;51.448;7.306;2022-12-18T16:10:57;15.37;;;10.30;;
4533;SDS011;2279;51.448;7.306;2022-12-18T16:13:23;17.60;;;9.90;;
4533;SDS011;2279;51.448;7.306;2022-12-18T16:15:49;18.00;;;11.00;;
4533;SDS011;2279;51.448;7.306;2022-12-18T16:18:15;18.65;;;11.05;;
4533;SDS011;2279;51.448;7.306;2022-12-18T16:20:41;12.80;;;9.03;;
4533;SDS011;2279;51.448;7.306;2022-12-18T16:23:07;18.58;;;10.15;;
4533;SDS011;2279;51.448;7.306;2022-12-18T16:25:33;16.27;;;10.27;;
4533;SDS011;2279;51.448;7.306;2022-12-18T16:27:59;15.90;;;10.47;;
4533;SDS011;2279;51.448;7.306;2022-12-18T16:30:26;16.27;;;9.23;;
4533;SDS011;2279;51.448;7.306;2022-12-18T16:32:53;18.95;;;10.20;;
4533;SDS011;2279;51.448;7.306;2022-12-18T16:35:19;10.40;;;8.43;;
4533;SDS011;2279;51.448;7.306;2022-12-18T16:37:45;17.92;;;10.77;;
4533;SDS011;2279;51.448;7.306;2022-12-18T16:40:12;20.40;;;11.38;;
4533;SDS011;2279;51.448;7.306;2022-12-18T16:42:39;20.38;;;12.70;;
4533;SDS011;2279;51.448;7.306;2022-12-18T16:45:06;17.27;;;9.85;;
4533;SDS011;2279;51.448;7.306;2022-12-18T16:47:33;22.27;;;10.35;;
4533;SDS011;2279;51.448;7.306;2022-12-18T16:49:59;20.60;;;12.27;;
4533;SDS011;2279;51.448;7.306;2022-12-18T16:52:25;20.23;;;12.10;;
4533;SDS011;2279;51.448;7.306;2022-12-18T16:54:51;18.50;;;11.30;;
4533;SDS011;2279;51.448;7.306;2022-12-18T16:57:18;21.77;;;12.93;;
4533;SDS011;2279;51.448;7.306;2022-12-18T16:59:45;21.50;;;12.80;;
4533;SDS011;2279;51.448;7.306;2022-12-18T17:02:12;19.73;;;13.07;;
4533;SDS011;2279;51.448;7.306;2022-12-18T17:04:39;21.70;;;12.23;;
4533;SDS011;2279;51.448;7.306;2022-12-18T17:07:06;17.65;;;9.73;;
4533;SDS011;2279;51.448;7.306;2022-12-18T17:09:31;16.17;;;11.80;;
4533;SDS011;2279;51.448;7.306;2022-12-18T17:11:58;21.38;;;12.52;;